createdAt,value
2019-02-26T00:01:35.455Z,18.32
2019-02-26T00:04:05.581Z,12.63
2019-02-26T00:06:35.734Z,21.82
2019-02-26T00:09:08.188Z,22.05
2019-02-26T00:11:40.157Z,20.57
2019-02-26T00:14:13.137Z,16.40
2019-02-26T00:16:42.851Z,21.45
2019-02-26T00:19:14.413Z,19.07
2019-02-26T00:21:45.676Z,21.97
2019-02-26T00:24:16.799Z,15.90
2019-02-26T00:26:47.157Z,16.93
2019-02-26T00:29:17.292Z,16.17
2019-02-26T00:31:49.015Z,15.80
2019-02-26T00:34:20.218Z,17.05
2019-02-26T00:36:50.451Z,14.43
2019-02-26T00:39:21.035Z,17.65
2019-02-26T00:41:53.674Z,17.07
2019-02-26T00:44:25.269Z,17.05
2019-02-26T00:46:57.564Z,13.95
2019-02-26T00:49:28.485Z,18.27
2019-02-26T00:51:59.586Z,11.83
2019-02-26T00:54:31.836Z,12.35
2019-02-26T00:57:03.461Z,18.77
2019-02-26T00:59:36.381Z,16.60
2019-02-26T01:02:07.245Z,17.15
2019-02-26T01:04:38.710Z,19.30
2019-02-26T01:07:09.147Z,13.78
2019-02-26T01:09:39.229Z,12.05
2019-02-26T01:12:11.816Z,12.68
2019-02-26T01:14:43.708Z,15.72
2019-02-26T01:17:14.862Z,13.15
2019-02-26T01:19:45.520Z,11.78
2019-02-26T01:22:15.674Z,20.00
2019-02-26T01:24:47.615Z,20.30
2019-02-26T01:27:17.596Z,15.65
2019-02-26T01:29:51.213Z,20.00
2019-02-26T01:32:20.905Z,20.70
2019-02-26T01:34:51.246Z,10.95
2019-02-26T01:37:21.402Z,12.33
2019-02-26T01:39:52.211Z,15.65
2019-02-26T01:42:25.344Z,18.32
2019-02-26T01:44:55.058Z,18.92
2019-02-26T01:47:26.368Z,21.87
2019-02-26T01:49:56.965Z,16.65
2019-02-26T01:52:27.158Z,27.73
2019-02-26T01:54:58.386Z,17.60
2019-02-26T01:57:30.640Z,21.90
2019-02-26T02:00:00.761Z,23.32
2019-02-26T02:02:32.626Z,19.70
2019-02-26T02:05:04.844Z,25.55
2019-02-26T02:07:34.546Z,22.40
2019-02-26T02:10:06.750Z,12.53
2019-02-26T02:12:39.593Z,17.92
2019-02-26T02:15:12.420Z,16.48
2019-02-26T02:17:43.801Z,29.90
2019-02-26T02:20:16.459Z,23.30
2019-02-26T02:22:46.745Z,31.87
2019-02-26T02:25:16.855Z,25.48
2019-02-26T02:27:49.705Z,30.35
2019-02-26T02:30:26.860Z,26.42
2019-02-26T02:32:54.273Z,26.27
2019-02-26T02:35:22.645Z,10.45
2019-02-26T02:37:53.601Z,15.75
2019-02-26T02:40:24.553Z,15.05
2019-02-26T02:42:54.683Z,15.70
2019-02-26T02:45:24.799Z,15.68
2019-02-26T02:47:58.265Z,10.75
2019-02-26T02:50:26.676Z,12.28
2019-02-26T02:52:59.632Z,14.90
2019-02-26T02:55:29.273Z,8.50
2019-02-26T02:58:00.514Z,10.75
2019-02-26T03:00:32.205Z,8.38
2019-02-26T03:03:02.525Z,8.75
2019-02-26T03:05:36.830Z,9.93
2019-02-26T03:08:05.238Z,11.03
2019-02-26T03:10:37.321Z,7.42
2019-02-26T03:13:14.260Z,7.58
2019-02-26T03:15:44.391Z,8.55
2019-02-26T03:18:16.490Z,6.10
2019-02-26T03:20:46.258Z,6.60
2019-02-26T03:23:19.842Z,10.10
2019-02-26T03:25:50.521Z,7.45
2019-02-26T03:28:19.974Z,7.67
2019-02-26T03:30:50.071Z,7.20
2019-02-26T03:33:20.279Z,5.90
2019-02-26T03:35:50.380Z,9.73
2019-02-26T03:38:22.943Z,6.62
2019-02-26T03:40:54.678Z,9.63
2019-02-26T03:43:24.751Z,8.08
2019-02-26T03:45:54.873Z,7.85
2019-02-26T03:48:25.023Z,7.10
2019-02-26T03:50:55.148Z,9.18
2019-02-26T03:53:28.032Z,6.15
2019-02-26T03:56:01.935Z,8.98
2019-02-26T03:58:28.913Z,12.30
2019-02-26T04:01:04.475Z,6.53
2019-02-26T04:03:32.621Z,8.53
2019-02-26T04:06:07.483Z,8.58
2019-02-26T04:08:37.109Z,11.45
2019-02-26T04:11:07.224Z,7.83
2019-02-26T04:13:37.349Z,5.92
2019-02-26T04:16:07.567Z,6.05
2019-02-26T04:18:37.754Z,8.35
2019-02-26T04:21:17.655Z,6.87
2019-02-26T04:23:46.694Z,4.92
2019-02-26T04:26:35.282Z,6.72
2019-02-26T04:29:15.293Z,6.25
2019-02-26T04:32:06.591Z,5.95
2019-02-26T04:34:42.582Z,5.85
2019-02-26T04:37:30.163Z,6.47
2019-02-26T04:40:05.370Z,6.05
2019-02-26T04:42:49.221Z,7.28
2019-02-26T04:45:25.224Z,6.12
2019-02-26T04:48:06.963Z,5.22
2019-02-26T04:50:38.712Z,3.40
2019-02-26T04:53:11.312Z,3.47
2019-02-26T04:55:42.250Z,4.72
2019-02-26T04:58:15.592Z,3.60
2019-02-26T05:00:45.769Z,5.20
2019-02-26T05:03:17.962Z,4.80
2019-02-26T05:05:51.398Z,6.10
2019-02-26T05:08:19.484Z,5.05
2019-02-26T05:10:51.769Z,4.70
2019-02-26T05:13:22.759Z,6.58
2019-02-26T05:15:53.147Z,4.80
2019-02-26T05:18:26.421Z,4.87
2019-02-26T05:20:59.202Z,5.90
2019-02-26T05:23:31.708Z,6.58
2019-02-26T05:26:05.213Z,3.47
2019-02-26T05:28:35.382Z,4.45
2019-02-26T05:31:06.415Z,5.30
2019-02-26T05:33:36.225Z,5.60
2019-02-26T05:36:08.773Z,5.00
2019-02-26T05:38:38.097Z,8.90
2019-02-26T05:41:08.260Z,4.75
2019-02-26T05:43:38.328Z,6.75
2019-02-26T05:46:08.505Z,5.83
2019-02-26T05:48:40.070Z,5.42
2019-02-26T05:51:11.445Z,8.00
2019-02-26T05:53:41.693Z,5.45
2019-02-26T05:56:14.437Z,10.18
2019-02-26T05:58:46.400Z,5.00
2019-02-26T06:01:16.869Z,5.17
2019-02-26T06:03:49.697Z,3.22
2019-02-26T06:06:19.603Z,7.42
2019-02-26T06:08:49.694Z,7.47
2019-02-26T06:11:19.825Z,6.72
2019-02-26T06:13:49.980Z,6.95
2019-02-26T06:16:21.836Z,6.87
2019-02-26T06:18:54.366Z,7.70
2019-02-26T06:21:26.082Z,5.75
2019-02-26T06:23:56.137Z,6.12
2019-02-26T06:26:30.373Z,4.03
2019-02-26T06:29:04.452Z,6.47
2019-02-26T06:31:37.658Z,2.02
2019-02-26T06:34:08.834Z,6.67
2019-02-26T06:36:42.000Z,5.60
2019-02-26T06:39:12.993Z,5.45
2019-02-26T06:41:44.433Z,7.78
2019-02-26T06:44:14.867Z,3.77
2019-02-26T06:46:45.178Z,6.65
2019-02-26T06:49:18.331Z,3.60
2019-02-26T06:51:49.806Z,5.50
2019-02-26T06:54:22.693Z,5.17
2019-02-26T06:56:53.011Z,3.52
2019-02-26T06:59:33.776Z,4.47
2019-02-26T07:02:02.200Z,6.37
2019-02-26T07:04:32.312Z,4.58
2019-02-26T07:07:04.216Z,7.35
2019-02-26T07:09:34.603Z,5.80
2019-02-26T07:12:06.047Z,4.22
2019-02-26T07:14:36.194Z,6.17
2019-02-26T07:17:06.331Z,7.75
2019-02-26T07:19:38.123Z,6.00
2019-02-26T07:22:10.980Z,4.33
2019-02-26T07:24:41.769Z,6.40
2019-02-26T07:27:14.250Z,2.12
2019-02-26T07:29:45.579Z,6.12
2019-02-26T07:32:17.902Z,9.35
2019-02-26T07:34:49.659Z,7.72
2019-02-26T07:37:19.652Z,8.58
2019-02-26T07:39:51.517Z,5.65
2019-02-26T07:42:21.731Z,8.45
2019-02-26T07:44:52.254Z,6.50
2019-02-26T07:47:24.287Z,12.60
2019-02-26T07:49:56.503Z,5.83
2019-02-26T07:52:28.446Z,6.17
2019-02-26T07:54:58.525Z,7.17
2019-02-26T07:57:28.717Z,10.08
2019-02-26T07:59:58.865Z,8.25
2019-02-26T08:02:30.639Z,11.43
2019-02-26T08:05:01.841Z,5.25
2019-02-26T08:07:32.001Z,5.45
2019-02-26T08:10:02.171Z,6.30
2019-02-26T08:12:35.058Z,9.13
2019-02-26T08:15:05.676Z,4.67
2019-02-26T08:17:37.049Z,5.30
2019-02-26T08:20:10.680Z,12.28
2019-02-26T08:22:41.717Z,6.12
2019-02-26T08:25:12.543Z,10.32
2019-02-26T08:27:42.721Z,10.05
2019-02-26T08:30:17.723Z,10.90
2019-02-26T08:32:51.121Z,12.68
2019-02-26T08:35:19.060Z,13.20
2019-02-26T08:37:49.380Z,17.15
2019-02-26T08:40:19.543Z,16.30
2019-02-26T08:42:49.721Z,12.30
2019-02-26T08:45:23.605Z,12.98
2019-02-26T08:47:53.239Z,8.55
2019-02-26T08:50:23.430Z,9.95
2019-02-26T08:52:56.211Z,9.70
2019-02-26T08:55:25.353Z,9.53
2019-02-26T08:57:56.552Z,13.25
2019-02-26T09:00:26.803Z,10.65
2019-02-26T09:02:56.966Z,9.45
2019-02-26T09:05:29.212Z,9.35
2019-02-26T09:07:58.887Z,16.20
2019-02-26T09:10:29.789Z,10.38
2019-02-26T09:12:59.946Z,17.50
2019-02-26T09:15:31.304Z,9.60
2019-02-26T09:18:01.882Z,14.00
2019-02-26T09:20:32.045Z,10.53
2019-02-26T09:23:02.203Z,11.83
2019-02-26T09:25:33.976Z,9.40
2019-02-26T09:28:04.320Z,8.65
2019-02-26T09:30:35.908Z,9.70
2019-02-26T09:33:09.058Z,10.43
2019-02-26T09:35:39.040Z,9.43
2019-02-26T09:38:09.191Z,8.93
2019-02-26T09:40:39.343Z,8.48
2019-02-26T09:43:09.528Z,11.48
2019-02-26T09:45:41.729Z,15.25
2019-02-26T09:48:12.220Z,11.30
2019-02-26T09:50:44.302Z,13.45
2019-02-26T09:53:15.012Z,11.38
2019-02-26T09:55:45.153Z,7.35
2019-02-26T09:58:15.949Z,13.80
2019-02-26T10:00:47.998Z,8.53
2019-02-26T10:03:18.873Z,10.32
2019-02-26T10:05:52.217Z,10.93
2019-02-26T10:08:22.437Z,7.03
2019-02-26T10:10:54.435Z,15.13
2019-02-26T10:13:25.207Z,8.65
2019-02-26T10:15:58.586Z,11.83
2019-02-26T10:18:30.319Z,8.15
2019-02-26T10:20:59.781Z,6.47
2019-02-26T10:23:33.066Z,7.67
2019-02-26T10:26:03.423Z,9.65
2019-02-26T10:28:37.298Z,10.43
2019-02-26T10:31:09.090Z,7.47
2019-02-26T10:33:38.669Z,12.23
2019-02-26T10:36:11.172Z,9.95
2019-02-26T10:38:41.271Z,9.35
2019-02-26T10:41:11.366Z,7.95
2019-02-26T10:43:41.590Z,11.15
2019-02-26T10:46:11.761Z,13.20
2019-02-26T10:48:43.488Z,9.95
2019-02-26T10:51:16.649Z,10.65
2019-02-26T10:53:45.460Z,9.38
2019-02-26T10:56:15.606Z,7.80
2019-02-26T10:58:46.058Z,16.12
2019-02-26T11:01:17.800Z,11.43
2019-02-26T11:03:49.269Z,12.73
2019-02-26T11:06:19.733Z,8.48
2019-02-26T11:08:51.056Z,11.63
2019-02-26T11:11:21.623Z,19.10
2019-02-26T11:13:53.786Z,11.12
2019-02-26T11:16:25.389Z,11.50
2019-02-26T11:18:55.302Z,11.60
2019-02-26T11:21:30.819Z,10.15
2019-02-26T11:24:03.499Z,16.32
2019-02-26T11:26:35.193Z,17.05
2019-02-26T11:29:04.510Z,15.60
2019-02-26T11:31:36.525Z,17.77
2019-02-26T11:34:10.939Z,11.38
2019-02-26T11:36:40.982Z,12.90
2019-02-26T11:39:12.071Z,13.25
2019-02-26T11:41:42.409Z,14.00
2019-02-26T11:44:15.058Z,13.78
2019-02-26T11:46:46.224Z,12.23
2019-02-26T11:49:16.794Z,14.98
2019-02-26T11:51:48.704Z,11.30
2019-02-26T11:54:18.877Z,11.15
2019-02-26T11:56:49.807Z,11.40
2019-02-26T11:59:20.828Z,14.87
2019-02-26T12:01:50.997Z,14.83
2019-02-26T12:04:21.135Z,18.45
2019-02-26T12:06:51.289Z,16.30
2019-02-26T12:09:23.367Z,14.68
2019-02-26T12:11:53.522Z,21.07
2019-02-26T12:14:23.751Z,10.30
2019-02-26T12:16:53.864Z,17.75
2019-02-26T12:19:25.663Z,11.85
2019-02-26T12:21:57.507Z,14.60
2019-02-26T12:24:28.990Z,12.47
2019-02-26T12:27:00.500Z,10.55
2019-02-26T12:29:30.711Z,10.13
2019-02-26T12:32:01.904Z,10.90
2019-02-26T12:34:34.969Z,11.08
2019-02-26T12:37:06.602Z,9.53
2019-02-26T12:39:36.170Z,10.60
2019-02-26T12:42:07.396Z,11.40
2019-02-26T12:44:42.255Z,10.90
2019-02-26T12:47:12.014Z,13.95
2019-02-26T12:49:44.270Z,11.35
2019-02-26T12:52:15.190Z,11.85
2019-02-26T12:54:45.110Z,18.45
2019-02-26T12:57:16.962Z,12.93
2019-02-26T12:59:48.590Z,12.53
2019-02-26T13:02:24.638Z,13.62
2019-02-26T13:04:53.452Z,15.00
2019-02-26T13:07:23.694Z,9.33
2019-02-26T13:09:56.085Z,10.65
2019-02-26T13:12:29.638Z,13.93
2019-02-26T13:15:04.774Z,14.05
2019-02-26T13:17:32.393Z,15.80
2019-02-26T13:20:06.073Z,7.97
2019-02-26T13:22:34.056Z,9.78
2019-02-26T13:25:13.323Z,9.83
2019-02-26T13:27:39.721Z,10.53
2019-02-26T13:30:12.576Z,12.58
2019-02-26T13:32:55.377Z,7.50
2019-02-26T13:35:16.088Z,7.83
2019-02-26T13:37:48.520Z,13.25
2019-02-26T13:40:23.169Z,9.23
2019-02-26T13:45:26.091Z,6.25
2019-02-26T13:48:01.041Z,6.30
2019-02-26T13:50:35.168Z,12.07
2019-02-26T13:53:05.718Z,10.72
2019-02-26T13:55:36.013Z,8.93
2019-02-26T13:58:11.740Z,13.62
2019-02-26T14:00:38.110Z,9.63
2019-02-26T14:03:08.222Z,11.48
2019-02-26T14:05:38.583Z,12.40
2019-02-26T14:08:08.719Z,14.23
2019-02-26T14:10:38.890Z,12.40
2019-02-26T14:13:09.006Z,9.03
2019-02-26T14:15:39.514Z,7.85
2019-02-26T14:18:09.612Z,10.08
2019-02-26T14:20:39.833Z,7.15
2019-02-26T14:23:12.269Z,16.15
2019-02-26T14:25:42.434Z,10.58
2019-02-26T14:28:12.565Z,13.30
2019-02-26T14:30:42.790Z,6.92
2019-02-26T14:33:12.895Z,14.68
2019-02-26T14:35:43.057Z,8.48
2019-02-26T14:38:14.506Z,10.58
2019-02-26T14:40:44.703Z,5.15
2019-02-26T14:43:14.800Z,14.78
2019-02-26T14:45:44.969Z,11.48
2019-02-26T14:48:15.283Z,14.65
2019-02-26T14:50:45.453Z,12.30
2019-02-26T14:53:15.623Z,10.68
2019-02-26T14:55:45.838Z,17.35
2019-02-26T14:58:15.973Z,10.05
2019-02-26T15:00:54.967Z,15.25
2019-02-26T15:03:17.922Z,16.82
2019-02-26T15:05:48.098Z,16.57
2019-02-26T15:08:18.215Z,12.82
2019-02-26T15:10:48.389Z,11.60
2019-02-26T15:13:18.501Z,14.95
2019-02-26T15:15:48.654Z,17.60
2019-02-26T15:18:24.113Z,13.62
2019-02-26T15:20:54.341Z,20.48
2019-02-26T15:23:24.464Z,14.40
2019-02-26T15:25:54.638Z,14.10
2019-02-26T15:28:24.805Z,12.13
2019-02-26T15:30:55.361Z,17.70
2019-02-26T15:33:25.500Z,18.17
2019-02-26T15:35:55.697Z,15.83
2019-02-26T15:38:25.840Z,13.43
2019-02-26T15:40:56.922Z,15.83
2019-02-26T15:43:27.050Z,17.82
2019-02-26T15:45:57.780Z,14.58
2019-02-26T15:48:28.948Z,14.50
2019-02-26T15:50:59.127Z,15.72
2019-02-26T15:53:29.528Z,15.95
2019-02-26T15:56:00.023Z,14.75
2019-02-26T15:58:30.193Z,18.73
2019-02-26T16:01:00.378Z,12.93
2019-02-26T16:03:30.483Z,25.02
2019-02-26T16:06:00.662Z,13.20
2019-02-26T16:08:34.553Z,8.90
2019-02-26T16:11:02.541Z,7.60
2019-02-26T16:13:32.650Z,11.80
2019-02-26T16:16:02.930Z,14.07
2019-02-26T16:18:33.777Z,12.85
2019-02-26T16:21:04.041Z,10.20
2019-02-26T16:23:34.161Z,11.90
2019-02-26T16:26:05.628Z,9.33
2019-02-26T16:28:36.141Z,16.02
2019-02-26T16:31:06.399Z,15.72
2019-02-26T16:33:36.636Z,15.28
2019-02-26T16:36:06.793Z,14.00
2019-02-26T16:38:38.499Z,16.37
2019-02-26T16:41:08.653Z,14.05
2019-02-26T16:43:38.829Z,14.95
2019-02-26T16:46:11.262Z,17.60
2019-02-26T16:48:41.418Z,19.23
2019-02-26T16:51:11.586Z,20.77
2019-02-26T16:53:41.778Z,18.57
2019-02-26T16:56:11.957Z,15.68
2019-02-26T16:58:42.220Z,14.38
2019-02-26T17:01:12.987Z,17.62
2019-02-26T17:03:43.132Z,13.55
2019-02-26T17:06:13.295Z,13.08
2019-02-26T17:08:44.690Z,13.85
2019-02-26T17:11:15.275Z,14.30
2019-02-26T17:13:45.462Z,15.95
2019-02-26T17:16:17.929Z,12.37
2019-02-26T17:18:48.072Z,13.13
2019-02-26T17:21:18.615Z,13.35
2019-02-26T17:23:48.878Z,14.55
2019-02-26T17:26:19.033Z,10.28
2019-02-26T17:28:49.174Z,13.70
2019-02-26T17:31:19.334Z,8.75
2019-02-26T17:33:49.460Z,8.38
2019-02-26T17:36:19.597Z,18.15
2019-02-26T17:38:51.752Z,13.55
2019-02-26T17:41:21.736Z,10.18
2019-02-26T17:43:53.440Z,12.98
2019-02-26T17:46:23.916Z,13.80
2019-02-26T17:48:54.026Z,15.63
2019-02-26T17:51:24.177Z,21.17
2019-02-26T17:53:54.337Z,14.07
2019-02-26T17:56:26.734Z,11.10
2019-02-26T17:58:58.853Z,15.53
2019-02-26T18:01:28.983Z,16.80
2019-02-26T18:03:59.834Z,20.50
2019-02-26T18:06:29.944Z,18.42
2019-02-26T18:09:00.085Z,11.88
2019-02-26T18:11:30.206Z,12.90
2019-02-26T18:14:00.779Z,15.50
2019-02-26T18:16:34.369Z,26.45
2019-02-26T18:19:03.756Z,25.45
2019-02-26T18:21:33.899Z,17.80
2019-02-26T18:24:04.055Z,17.82
2019-02-26T18:26:34.149Z,18.15
2019-02-26T18:29:04.299Z,20.80
2019-02-26T18:31:35.214Z,21.52
2019-02-26T18:34:05.754Z,12.00
2019-02-26T18:36:35.979Z,11.00
2019-02-26T18:39:06.509Z,9.55
2019-02-26T18:41:37.505Z,10.03
2019-02-26T18:44:09.528Z,15.93
2019-02-26T18:46:39.415Z,9.30
2019-02-26T18:49:09.560Z,9.08
2019-02-26T18:51:39.758Z,7.90
2019-02-26T18:54:09.905Z,8.98
2019-02-26T18:56:40.013Z,13.20
2019-02-26T18:59:10.151Z,9.38
2019-02-26T19:01:45.727Z,17.48
2019-02-26T19:04:16.287Z,13.95
2019-02-26T19:06:47.098Z,11.55
2019-02-26T19:09:19.081Z,16.55
2019-02-26T19:11:49.335Z,15.38
2019-02-26T19:14:20.995Z,15.23
2019-02-26T19:16:54.920Z,15.35
2019-02-26T19:19:24.846Z,22.15
2019-02-26T19:21:55.252Z,23.57
2019-02-26T19:24:25.605Z,16.37
2019-02-26T19:26:57.569Z,16.07
2019-02-26T19:29:31.199Z,19.95
2019-02-26T19:31:59.796Z,20.32
2019-02-26T19:34:31.474Z,15.80
2019-02-26T19:37:01.874Z,24.30
2019-02-26T19:39:33.802Z,16.00
2019-02-26T19:42:04.099Z,21.52
2019-02-26T19:44:35.880Z,23.85
2019-02-26T19:47:06.155Z,15.63
2019-02-26T19:49:36.849Z,11.43
2019-02-26T19:52:08.069Z,19.80
2019-02-26T19:54:41.568Z,9.55
2019-02-26T19:57:09.992Z,19.42
2019-02-26T19:59:40.130Z,14.35
2019-02-26T20:02:10.277Z,13.72
2019-02-26T20:04:40.436Z,16.02
2019-02-26T20:07:10.542Z,15.63
2019-02-26T20:09:41.606Z,17.95
2019-02-26T20:12:11.841Z,13.72
2019-02-26T20:14:41.961Z,17.80
2019-02-26T20:17:14.701Z,17.80
2019-02-26T20:19:43.841Z,31.80
2019-02-26T20:22:14.016Z,16.90
2019-02-26T20:24:44.133Z,16.32
2019-02-26T20:27:14.269Z,17.20
2019-02-26T20:29:44.426Z,11.35
2019-02-26T20:32:15.570Z,16.55
2019-02-26T20:34:46.121Z,19.65
2019-02-26T20:37:16.269Z,15.08
2019-02-26T20:39:46.401Z,15.38
2019-02-26T20:42:18.824Z,13.65
2019-02-26T20:44:58.665Z,14.98
2019-02-26T20:47:21.727Z,14.78
2019-02-26T20:49:51.876Z,16.15
2019-02-26T20:52:22.079Z,10.15
2019-02-26T20:54:52.238Z,11.65
2019-02-26T20:57:22.389Z,20.00
2019-02-26T20:59:52.600Z,16.57
2019-02-26T21:02:22.764Z,25.97
2019-02-26T21:04:53.007Z,9.13
2019-02-26T21:07:24.504Z,14.53
2019-02-26T21:10:03.311Z,11.68
2019-02-26T21:12:28.650Z,26.25
2019-02-26T21:14:58.402Z,17.30
2019-02-26T21:17:28.550Z,26.37
2019-02-26T21:19:58.692Z,17.05
2019-02-26T21:22:28.856Z,16.93
2019-02-26T21:24:58.976Z,15.78
2019-02-26T21:27:29.245Z,11.25
2019-02-26T21:29:59.406Z,14.15
2019-02-26T21:32:29.519Z,12.68
2019-02-26T21:34:59.669Z,16.42
2019-02-26T21:37:32.638Z,8.85
2019-02-26T21:40:01.712Z,15.75
2019-02-26T21:42:33.435Z,26.65
2019-02-26T21:45:04.277Z,17.70
2019-02-26T21:47:35.410Z,25.20
2019-02-26T21:50:07.774Z,23.27
2019-02-26T21:52:39.769Z,23.45
2019-02-26T21:55:11.909Z,17.92
2019-02-26T21:57:42.166Z,30.57
2019-02-26T22:00:19.984Z,27.13
2019-02-26T22:02:52.074Z,23.65
2019-02-26T22:05:21.517Z,29.72
2019-02-26T22:07:52.390Z,31.27
2019-02-26T22:10:23.178Z,20.32
2019-02-26T22:12:56.603Z,22.62
2019-02-26T22:15:25.254Z,16.30
2019-02-26T22:17:55.725Z,20.48
2019-02-26T22:20:35.942Z,23.05
2019-02-26T22:23:00.409Z,13.65
2019-02-26T22:25:31.860Z,23.20
2019-02-26T22:28:02.001Z,24.72
2019-02-26T22:30:32.162Z,25.50
2019-02-26T22:33:02.436Z,36.90
2019-02-26T22:35:32.538Z,23.70
2019-02-26T22:38:02.794Z,31.15
2019-02-26T22:40:34.255Z,26.07
2019-02-26T22:43:04.559Z,22.73
2019-02-26T22:45:34.676Z,22.55
2019-02-26T22:48:04.967Z,16.17
2019-02-26T22:50:35.101Z,21.87
2019-02-26T22:53:05.242Z,23.32
2019-02-26T22:55:35.366Z,20.75
2019-02-26T22:58:05.547Z,10.23
2019-02-26T23:00:55.687Z,17.25
2019-02-26T23:03:28.113Z,17.55
2019-02-26T23:05:59.028Z,26.52
2019-02-26T23:08:30.219Z,17.92
2019-02-26T23:11:00.312Z,12.60
2019-02-26T23:13:31.930Z,18.17
2019-02-26T23:16:02.957Z,16.07
2019-02-26T23:18:33.122Z,30.15
2019-02-26T23:21:03.345Z,16.95
2019-02-26T23:23:34.609Z,10.32
2019-02-26T23:26:08.681Z,16.50
2019-02-26T23:28:36.589Z,31.20
2019-02-26T23:31:07.432Z,15.32
2019-02-26T23:33:40.763Z,15.00
2019-02-26T23:36:10.790Z,24.25
2019-02-26T23:38:43.865Z,14.87
2019-02-26T23:41:12.786Z,20.15
2019-02-26T23:43:45.248Z,15.72
2019-02-26T23:46:14.735Z,11.15
2019-02-26T23:48:44.895Z,10.78
2019-02-26T23:51:15.024Z,15.88
2019-02-26T23:53:45.208Z,17.67
2019-02-26T23:56:16.774Z,16.10
2019-02-26T23:58:47.246Z,16.35
